Time;durP1;ratioP1;P1;durP2;ratioP2;P2;SDS_P1;SDS_P2;PMS_P1;PMS_P2;Temp;Humidity;BMP_temperature;BMP_pressure;BME280_temperature;BME280_humidity;BME280_pressure;Samples;Min_cycle;Max_cycle;Signal;HPM_P1;HPM_P2
2022/08/24 00:01:07;;;;;;;11.88;9.98;;;21.30;98.30;;;;;;5052517;28;20413;-70
2022/08/24 00:03:34;;;;;;;11.88;9.50;;;21.20;98.60;;;;;;5052514;28;20037;-70
2022/08/24 00:06:00;;;;;;;11.57;9.30;;;21.10;98.40;;;;;;5049827;28;20028;-70
2022/08/24 00:08:26;;;;;;;11.85;8.80;;;21.20;98.40;;;;;;5052132;28;20040;-70
2022/08/24 00:10:52;;;;;;;10.38;8.80;;;21.60;98.60;;;;;;5055498;28;20410;-70
2022/08/24 00:13:19;;;;;;;11.25;9.48;;;21.10;98.60;;;;;;5053433;28;20029;-70
2022/08/24 00:15:45;;;;;;;9.27;8.45;;;22.00;98.90;;;;;;5052828;28;20436;-70
2022/08/24 00:18:11;;;;;;;8.65;7.88;;;21.20;98.70;;;;;;5052031;28;20435;-70
2022/08/24 00:20:38;;;;;;;9.45;8.40;;;21.00;98.70;;;;;;5058779;28;20039;-70
2022/08/24 00:23:05;;;;;;;9.65;8.32;;;21.00;98.90;;;;;;5058782;28;20043;-70
2022/08/24 00:25:32;;;;;;;10.70;9.60;;;21.10;99.10;;;;;;5052267;28;20020;-70
2022/08/24 00:27:57;;;;;;;12.68;9.27;;;21.00;99.10;;;;;;5052586;28;20040;-70
2022/08/24 00:30:24;;;;;;;10.35;9.10;;;21.50;99.30;;;;;;5060633;28;20017;-70
2022/08/24 00:32:50;;;;;;;10.10;9.02;;;21.00;99.30;;;;;;5056475;28;20094;-70
2022/08/24 00:35:17;;;;;;;11.02;9.90;;;21.00;99.20;;;;;;5051303;28;20021;-70
2022/08/24 00:37:43;;;;;;;12.32;10.10;;;21.00;99.40;;;;;;5051696;28;20028;-71
2022/08/24 00:40:24;;;;;;;12.45;10.52;;;20.90;99.30;;;;;;5052598;28;20028;-70
2022/08/24 00:42:49;;;;;;;11.23;10.05;;;21.00;99.80;;;;;;5041537;28;20037;-70
2022/08/24 00:45:16;;;;;;;12.27;11.02;;;21.70;99.70;;;;;;5052258;28;20385;-70
2022/08/24 00:47:48;;;;;;;10.90;9.90;;;20.90;99.60;;;;;;5064560;28;20025;-70
2022/08/24 00:50:21;;;;;;;10.98;9.98;;;20.70;99.80;;;;;;5050379;28;20033;-70
2022/08/24 00:52:59;;;;;;;11.38;10.25;;;20.90;99.90;;;;;;5051551;28;20531;-70
2022/08/24 00:55:33;;;;;;;10.18;9.25;;;20.80;99.40;;;;;;5064514;28;20056;-71
2022/08/24 00:58:02;;;;;;;10.93;9.82;;;21.70;99.90;;;;;;5052111;28;20021;-70
2022/08/24 01:00:32;;;;;;;13.15;9.93;;;20.60;99.90;;;;;;5051948;28;20121;-70
2022/08/24 01:03:03;;;;;;;11.32;10.25;;;20.70;99.90;;;;;;5051744;28;20547;-70
2022/08/24 01:05:33;;;;;;;12.40;11.25;;;20.60;99.90;;;;;;5051912;28;20052;-70
2022/08/24 01:08:00;;;;;;;11.57;9.35;;;20.60;99.90;;;;;;5051747;28;20031;-71
2022/08/24 01:10:29;;;;;;;10.43;9.30;;;20.60;99.90;;;;;;5051780;28;20025;-71
2022/08/24 01:13:00;;;;;;;12.00;10.60;;;20.60;99.90;;;;;;5066578;28;20023;-70
2022/08/24 01:15:26;;;;;;;12.18;10.80;;;20.60;99.90;;;;;;5071910;28;20482;-70
2022/08/24 01:20:36;;;;;;;11.75;10.63;;;20.60;99.80;;;;;;5047483;28;20607;-70
2022/08/24 01:23:13;;;;;;;10.98;9.93;;;20.50;99.90;;;;;;5071702;28;20495;-70
2022/08/24 01:25:42;;;;;;;12.27;11.02;;;20.60;99.90;;;;;;5046339;28;20042;-71
2022/08/24 01:28:13;;;;;;;10.90;9.88;;;18.90;99.90;;;;;;5067686;28;20026;-70
2022/08/24 01:30:39;;;;;;;12.52;10.55;;;20.50;99.90;;;;;;5071913;28;20059;-70
2022/08/24 01:33:07;;;;;;;12.32;11.02;;;21.40;99.90;;;;;;5071437;28;20048;-70
2022/08/24 01:35:36;;;;;;;11.85;10.75;;;20.50;99.90;;;;;;5071271;28;20489;-70
2022/08/24 01:38:07;;;;;;;11.63;10.20;;;20.40;99.90;;;;;;5066371;28;20025;-71
2022/08/24 01:40:37;;;;;;;12.07;10.98;;;20.30;99.90;;;;;;5071284;28;20385;-70
2022/08/24 01:43:06;;;;;;;13.48;11.45;;;21.00;99.90;;;;;;5071577;28;20061;-70
2022/08/24 01:45:32;;;;;;;13.70;12.00;;;20.40;99.90;;;;;;5071219;28;20090;-70
2022/08/24 01:47:58;;;;;;;13.25;11.95;;;20.30;99.90;;;;;;5064368;28;20059;-70
2022/08/24 01:50:24;;;;;;;12.65;11.45;;;20.30;99.90;;;;;;5070970;28;20104;-70
2022/08/24 01:52:50;;;;;;;12.40;11.02;;;20.30;99.90;;;;;;5070951;28;20107;-70
2022/08/24 01:55:16;;;;;;;12.48;10.90;;;20.20;99.90;;;;;;5070624;28;20040;-70
2022/08/24 01:57:42;;;;;;;11.73;10.63;;;20.20;99.90;;;;;;5059925;28;20032;-70
2022/08/24 02:00:13;;;;;;;12.68;11.50;;;20.10;99.90;;;;;;5061841;28;20044;-70
2022/08/24 02:02:40;;;;;;;12.85;11.68;;;20.20;99.90;;;;;;5070591;28;20067;-70
2022/08/24 02:05:07;;;;;;;13.70;12.43;;;20.00;99.90;;;;;;5070390;28;20016;-70
2022/08/24 02:07:32;;;;;;;11.60;10.57;;;20.10;99.90;;;;;;5060934;28;20466;-70
2022/08/24 02:09:58;;;;;;;12.07;10.75;;;19.90;99.90;;;;;;5065771;28;20039;-70
2022/08/24 02:12:23;;;;;;;11.35;10.38;;;20.00;99.90;;;;;;5060820;28;20084;-70
2022/08/24 02:14:50;;;;;;;11.88;9.45;;;20.00;99.90;;;;;;5056979;28;20092;-70
2022/08/24 02:17:17;;;;;;;10.60;9.70;;;19.90;99.90;;;;;;5068853;28;20032;-70
2022/08/24 02:19:43;;;;;;;10.88;9.95;;;20.00;99.90;;;;;;5069259;28;20481;-70
2022/08/24 02:22:09;;;;;;;10.27;9.40;;;19.80;99.90;;;;;;5070747;28;20041;-70
2022/08/24 02:24:34;;;;;;;12.18;9.32;;;19.80;99.90;;;;;;5070623;28;20035;-70
2022/08/24 02:27:01;;;;;;;12.63;11.63;;;20.50;99.90;;;;;;5064427;28;20510;-70
2022/08/24 02:29:26;;;;;;;12.90;11.70;;;19.80;99.90;;;;;;5060849;28;20102;-70
2022/08/24 02:31:52;;;;;;;12.63;10.98;;;20.90;99.90;;;;;;5069798;28;20058;-70
2022/08/24 02:34:18;;;;;;;13.27;11.45;;;19.90;99.90;;;;;;5070348;28;20460;-70
2022/08/24 02:36:43;;;;;;;11.55;10.55;;;19.80;99.90;;;;;;5066665;28;20029;-70
2022/08/24 02:39:09;;;;;;;11.85;10.75;;;19.80;99.90;;;;;;5070419;28;20032;-70
2022/08/24 02:41:36;;;;;;;15.75;12.00;;;19.90;99.90;;;;;;5070380;28;20020;-71
2022/08/24 02:44:02;;;;;;;12.95;10.85;;;19.90;99.90;;;;;;5070217;28;20024;-70
2022/08/24 02:46:29;;;;;;;12.35;11.25;;;19.80;99.90;;;;;;5067902;28;20025;-70
2022/08/24 02:49:00;;;;;;;13.68;11.48;;;19.70;99.90;;;;;;5067193;28;20035;-70
2022/08/24 02:51:28;;;;;;;13.63;12.18;;;19.60;99.90;;;;;;5070043;28;20024;-71
2022/08/24 02:53:55;;;;;;;14.48;12.25;;;19.60;99.90;;;;;;5070192;28;20477;-70
2022/08/24 02:56:21;;;;;;;13.25;12.02;;;19.50;99.90;;;;;;5059888;28;20024;-71
2022/08/24 02:58:47;;;;;;;12.43;11.43;;;19.50;99.90;;;;;;5070250;28;20098;-71
2022/08/24 03:01:14;;;;;;;12.05;10.73;;;19.50;99.90;;;;;;5063725;28;20070;-70
2022/08/24 03:03:40;;;;;;;12.25;11.07;;;19.60;99.90;;;;;;5069971;28;20036;-70
2022/08/24 03:06:07;;;;;;;12.23;11.10;;;19.50;99.90;;;;;;5055505;28;20028;-70
2022/08/24 03:08:34;;;;;;;12.82;11.65;;;19.50;99.90;;;;;;5060296;28;20024;-70
2022/08/24 03:10:59;;;;;;;13.32;12.10;;;19.30;99.90;;;;;;5057308;28;20044;-70
2022/08/24 03:13:27;;;;;;;13.27;12.13;;;19.50;99.90;;;;;;5068120;28;20024;-70
2022/08/24 03:15:54;;;;;;;14.18;12.57;;;19.40;99.90;;;;;;5066848;28;20021;-70
2022/08/24 03:18:20;;;;;;;14.68;13.10;;;19.40;99.90;;;;;;5066496;28;20028;-70
2022/08/24 03:20:46;;;;;;;13.48;12.25;;;19.40;99.90;;;;;;5070011;28;20017;-70
2022/08/24 03:23:11;;;;;;;15.02;13.65;;;19.40;99.90;;;;;;5069369;28;20059;-70
2022/08/24 03:25:37;;;;;;;14.30;12.93;;;19.20;99.90;;;;;;5069917;28;20074;-70
2022/08/24 03:28:03;;;;;;;13.45;12.18;;;19.30;99.90;;;;;;5062179;28;20064;-70
2022/08/24 03:30:28;;;;;;;15.07;13.63;;;19.30;99.90;;;;;;5060940;28;20117;-70
2022/08/24 03:32:54;;;;;;;14.85;13.38;;;19.20;99.90;;;;;;5064203;28;20033;-70
2022/08/24 03:35:21;;;;;;;14.85;13.30;;;19.20;99.90;;;;;;5066437;28;20045;-70
2022/08/24 03:37:50;;;;;;;14.82;11.68;;;19.20;99.90;;;;;;5058960;28;20025;-70
2022/08/24 03:40:17;;;;;;;13.60;12.15;;;19.20;99.90;;;;;;5069451;28;20373;-70
2022/08/24 03:42:42;;;;;;;12.60;11.32;;;19.10;99.90;;;;;;5069165;28;20477;-70
2022/08/24 03:45:09;;;;;;;13.27;12.00;;;19.10;99.90;;;;;;5069665;28;20056;-70
2022/08/24 03:47:34;;;;;;;12.27;11.07;;;19.10;99.90;;;;;;5064512;28;20536;-70
2022/08/24 03:50:00;;;;;;;13.75;12.45;;;19.10;99.90;;;;;;5059986;28;20046;-70
2022/08/24 03:52:25;;;;;;;13.98;12.68;;;19.10;99.90;;;;;;5069205;28;20036;-70
2022/08/24 03:54:51;;;;;;;13.60;12.40;;;19.10;99.90;;;;;;5069748;28;20033;-70
2022/08/24 03:57:17;;;;;;;13.52;12.05;;;19.00;99.90;;;;;;5068489;28;20078;-70
2022/08/24 03:59:43;;;;;;;13.90;11.73;;;19.00;99.90;;;;;;5064530;28;20044;-70
2022/08/24 04:02:08;;;;;;;13.15;11.95;;;19.10;99.90;;;;;;5053624;28;20037;-70
2022/08/24 04:04:34;;;;;;;14.23;12.75;;;19.90;99.90;;;;;;5048685;28;20021;-71
2022/08/24 04:07:00;;;;;;;11.27;9.88;;;18.90;99.90;;;;;;5060630;28;20025;-71
2022/08/24 04:09:25;;;;;;;11.50;10.50;;;19.10;99.90;;;;;;5052207;28;20017;-71
2022/08/24 04:11:51;;;;;;;11.55;10.48;;;19.10;99.90;;;;;;5054080;28;20029;-71
2022/08/24 04:14:18;;;;;;;11.50;10.02;;;19.00;99.90;;;;;;5053854;28;20152;-71
2022/08/24 04:16:44;;;;;;;10.95;9.95;;;19.00;99.90;;;;;;5052583;28;20081;-71
2022/08/24 04:19:10;;;;;;;11.25;10.35;;;19.10;99.90;;;;;;5048728;28;20083;-71
2022/08/24 04:21:36;;;;;;;13.15;11.95;;;19.00;99.90;;;;;;5051625;28;20051;-71
2022/08/24 04:24:06;;;;;;;12.32;11.23;;;19.00;99.90;;;;;;5047990;28;20474;-71
2022/08/24 04:26:31;;;;;;;12.68;11.48;;;19.10;99.90;;;;;;5047768;28;20067;-71
2022/08/24 04:28:57;;;;;;;12.77;11.02;;;18.90;99.90;;;;;;5052642;28;20474;-71
2022/08/24 04:31:23;;;;;;;12.75;11.65;;;19.60;99.90;;;;;;5067711;28;20381;-71
2022/08/24 04:33:50;;;;;;;13.23;11.93;;;20.10;99.90;;;;;;5052824;28;20061;-71
2022/08/24 04:36:17;;;;;;;11.73;10.65;;;18.80;99.90;;;;;;5052784;28;20075;-71
2022/08/24 04:38:43;;;;;;;11.40;10.40;;;18.40;99.90;;;;;;5052385;28;20060;-71
2022/08/24 04:41:11;;;;;;;12.68;11.57;;;18.80;99.90;;;;;;5052143;28;20486;-71
2022/08/24 04:43:38;;;;;;;11.77;10.73;;;18.80;99.90;;;;;;5052309;28;20029;-71
2022/08/24 04:46:06;;;;;;;11.82;10.82;;;18.70;99.90;;;;;;5052663;28;20028;-71
2022/08/24 04:48:33;;;;;;;12.25;11.00;;;18.80;99.90;;;;;;5052382;28;20017;-71
2022/08/24 04:51:05;;;;;;;12.25;11.10;;;18.70;99.90;;;;;;5052448;28;20013;-71
2022/08/24 04:53:31;;;;;;;11.82;10.65;;;18.80;99.90;;;;;;5051931;28;20029;-71
2022/08/24 04:55:58;;;;;;;13.48;12.27;;;18.40;99.90;;;;;;5052051;28;20052;-71
2022/08/24 04:58:24;;;;;;;13.02;11.80;;;18.80;99.90;;;;;;5052116;28;20037;-71
2022/08/24 05:00:50;;;;;;;13.43;12.30;;;18.80;99.90;;;;;;5064673;28;20146;-71
2022/08/24 05:03:16;;;;;;;13.52;12.13;;;19.10;99.90;;;;;;5051377;28;20045;-71
2022/08/24 05:05:44;;;;;;;13.15;11.95;;;18.80;99.90;;;;;;5052292;28;20025;-71
2022/08/24 05:08:11;;;;;;;13.93;12.77;;;19.90;99.90;;;;;;5051713;28;20025;-71
2022/08/24 05:10:39;;;;;;;13.32;12.10;;;18.80;99.90;;;;;;5051739;28;20044;-71
2022/08/24 05:13:06;;;;;;;13.20;12.07;;;18.80;99.90;;;;;;5054231;28;20041;-71
2022/08/24 05:15:32;;;;;;;12.75;11.65;;;18.50;99.90;;;;;;5064069;28;20025;-71
2022/08/24 05:17:58;;;;;;;14.30;13.13;;;18.90;99.90;;;;;;5066346;28;20016;-72
2022/08/24 05:20:23;;;;;;;13.55;12.25;;;18.90;99.90;;;;;;5071803;28;20031;-71
2022/08/24 05:22:51;;;;;;;14.85;13.40;;;18.80;99.90;;;;;;5059289;28;20466;-71
2022/08/24 05:25:16;;;;;;;14.05;12.75;;;18.70;99.90;;;;;;5069331;28;20043;-71
2022/08/24 05:27:42;;;;;;;14.57;13.15;;;18.90;99.90;;;;;;5072284;28;20107;-71
2022/08/24 05:30:09;;;;;;;16.17;13.23;;;18.90;99.90;;;;;;5071598;28;20052;-71
2022/08/24 05:32:35;;;;;;;15.35;13.73;;;19.00;99.90;;;;;;5069731;28;20025;-71
2022/08/24 05:35:03;;;;;;;15.73;14.23;;;19.10;99.90;;;;;;5070427;28;20411;-71
2022/08/24 05:37:29;;;;;;;13.95;12.68;;;19.20;99.90;;;;;;5071451;28;20020;-71
2022/08/24 05:39:55;;;;;;;14.05;12.93;;;19.30;99.90;;;;;;5070534;28;20027;-71
2022/08/24 05:42:20;;;;;;;16.08;14.38;;;19.20;99.90;;;;;;5062896;28;20044;-71
2022/08/24 05:44:46;;;;;;;16.00;14.65;;;19.30;99.90;;;;;;5062163;28;20028;-71
2022/08/24 05:47:11;;;;;;;15.90;14.40;;;19.50;99.90;;;;;;5071130;28;20024;-71
2022/08/24 05:49:37;;;;;;;13.55;12.40;;;19.50;99.90;;;;;;5071527;28;20031;-71
2022/08/24 05:52:03;;;;;;;13.43;12.02;;;19.40;99.90;;;;;;5065955;28;20025;-71
2022/08/24 05:54:28;;;;;;;14.70;13.30;;;19.30;99.90;;;;;;5070448;28;20473;-71
2022/08/24 05:56:56;;;;;;;13.55;12.43;;;19.60;99.90;;;;;;5065980;28;20025;-71
2022/08/24 05:59:22;;;;;;;19.23;16.20;;;19.60;99.90;;;;;;5050381;28;20021;-71
2022/08/24 06:01:47;;;;;;;15.93;14.32;;;19.60;99.90;;;;;;5050606;28;20080;-71
2022/08/24 06:04:13;;;;;;;14.80;13.30;;;19.70;99.90;;;;;;5050632;28;20087;-71
2022/08/24 06:06:39;;;;;;;15.88;14.23;;;19.80;99.90;;;;;;5051290;28;20612;-71
2022/08/24 06:09:04;;;;;;;15.63;14.13;;;19.90;99.90;;;;;;5050380;28;20025;-71
2022/08/24 06:11:36;;;;;;;19.73;14.63;;;19.90;99.90;;;;;;5050256;28;20512;-71
2022/08/24 06:14:05;;;;;;;18.00;16.30;;;20.00;99.90;;;;;;5047309;28;20390;-71
2022/08/24 06:16:43;;;;;;;16.42;15.13;;;20.10;99.90;;;;;;5050182;28;20025;-70
2022/08/24 06:19:12;;;;;;;18.08;16.35;;;20.10;99.90;;;;;;5050474;28;20383;-71
2022/08/24 06:21:39;;;;;;;18.83;16.92;;;20.10;99.90;;;;;;5049695;28;20021;-71
2022/08/24 06:24:06;;;;;;;19.45;17.42;;;21.00;99.90;;;;;;5050403;28;20066;-71
2022/08/24 06:29:17;;;;;;;22.40;20.30;;;20.40;99.90;;;;;;5047119;28;20063;-71
2022/08/24 06:31:45;;;;;;;19.63;17.92;;;20.50;99.90;;;;;;5055234;28;20558;-71
2022/08/24 06:34:12;;;;;;;21.85;19.85;;;20.50;99.90;;;;;;5062430;28;20115;-71
2022/08/24 06:36:38;;;;;;;23.48;21.00;;;20.50;99.90;;;;;;5049999;28;20029;-71
2022/08/24 06:39:04;;;;;;;26.08;23.77;;;20.70;99.90;;;;;;5048289;28;20106;-71
2022/08/24 06:41:30;;;;;;;25.27;22.88;;;20.70;99.90;;;;;;5049856;28;20041;-71
2022/08/24 06:43:56;;;;;;;26.75;24.23;;;20.70;99.90;;;;;;5050124;28;20549;-71
2022/08/24 06:46:22;;;;;;;27.85;25.25;;;20.80;99.90;;;;;;5049956;28;20116;-71
2022/08/24 06:48:48;;;;;;;24.77;22.48;;;20.80;99.90;;;;;;5050118;28;20025;-71
2022/08/24 06:51:17;;;;;;;24.50;22.23;;;20.90;99.90;;;;;;5049580;28;20072;-71
2022/08/24 06:53:44;;;;;;;26.23;23.70;;;21.00;99.90;;;;;;5050172;28;20052;-71
2022/08/24 06:56:11;;;;;;;26.05;23.75;;;21.10;99.90;;;;;;5049888;28;20024;-71
2022/08/24 06:58:37;;;;;;;25.60;22.92;;;21.10;99.90;;;;;;5046676;28;20385;-71
2022/08/24 07:01:11;;;;;;;27.27;24.58;;;21.00;99.90;;;;;;5052232;28;20511;-72
2022/08/24 07:03:37;;;;;;;24.23;21.73;;;21.30;99.90;;;;;;5054633;28;20037;-72
2022/08/24 07:06:04;;;;;;;25.27;22.77;;;21.30;99.90;;;;;;5047629;28;20017;-71
2022/08/24 07:08:29;;;;;;;26.33;23.58;;;21.50;99.90;;;;;;5049176;28;20024;-71
2022/08/24 07:10:55;;;;;;;27.02;24.52;;;21.40;99.90;;;;;;5061000;28;20838;-72
2022/08/24 07:13:20;;;;;;;27.08;24.70;;;21.50;99.90;;;;;;5066793;28;20409;-71
2022/08/24 07:15:46;;;;;;;26.75;24.38;;;22.60;99.90;;;;;;5067592;28;20492;-72
2022/08/24 07:18:17;;;;;;;26.65;24.20;;;21.70;99.90;;;;;;5067334;28;20444;-71
2022/08/24 07:20:43;;;;;;;27.33;24.45;;;21.60;99.90;;;;;;5050289;28;20075;-71
2022/08/24 07:23:11;;;;;;;27.08;24.60;;;21.80;99.90;;;;;;5051679;28;20552;-71
2022/08/24 07:25:37;;;;;;;26.40;23.90;;;21.90;99.90;;;;;;5063542;28;20024;-71
2022/08/24 07:28:03;;;;;;;24.08;21.83;;;22.00;99.90;;;;;;5066548;28;20031;-71
2022/08/24 07:30:29;;;;;;;24.90;22.52;;;22.00;99.90;;;;;;5059682;28;20066;-71
2022/08/24 07:32:56;;;;;;;24.10;21.77;;;22.20;99.90;;;;;;5066430;28;20025;-71
2022/08/24 07:35:23;;;;;;;24.60;22.20;;;22.40;99.90;;;;;;5048696;28;20021;-71
2022/08/24 07:37:49;;;;;;;22.48;20.25;;;22.40;99.90;;;;;;5053531;28;20517;-71
2022/08/24 07:40:15;;;;;;;23.10;21.00;;;22.50;99.90;;;;;;5047362;28;20025;-71
2022/08/24 07:42:41;;;;;;;21.48;19.55;;;22.70;99.90;;;;;;5048170;28;20489;-71
2022/08/24 07:45:07;;;;;;;22.45;19.80;;;22.70;99.90;;;;;;5050358;28;20033;-70
2022/08/24 07:47:33;;;;;;;18.83;17.30;;;22.80;99.90;;;;;;5060777;28;20092;-71
2022/08/24 07:49:58;;;;;;;19.63;17.83;;;23.90;99.90;;;;;;5065035;28;20120;-71
2022/08/24 07:52:24;;;;;;;23.52;19.23;;;23.20;99.80;;;;;;5065162;28;20092;-71
2022/08/24 07:54:49;;;;;;;20.15;16.50;;;23.20;99.50;;;;;;5063826;28;20111;-70
2022/08/24 07:57:15;;;;;;;16.88;15.25;;;23.20;99.20;;;;;;5058448;28;20116;-71
2022/08/24 07:59:41;;;;;;;15.40;14.05;;;23.50;99.10;;;;;;5048924;28;20334;-71
2022/08/24 08:02:09;;;;;;;15.18;13.68;;;23.50;98.90;;;;;;5058188;28;20094;-71
2022/08/24 08:04:34;;;;;;;14.88;13.35;;;23.60;98.80;;;;;;5051946;28;20036;-71
2022/08/24 08:07:00;;;;;;;17.17;14.07;;;24.70;98.70;;;;;;5063220;28;20036;-70
2022/08/24 08:09:26;;;;;;;14.50;13.02;;;23.80;98.10;;;;;;5068715;28;20025;-72
2022/08/24 08:11:51;;;;;;;13.57;12.18;;;23.80;97.80;;;;;;5060017;28;20055;-72
2022/08/24 08:14:17;;;;;;;13.50;12.30;;;23.90;97.60;;;;;;5070447;28;20036;-74
2022/08/24 08:16:43;;;;;;;11.25;10.20;;;24.00;97.50;;;;;;5057163;28;20017;-71
2022/08/24 08:19:08;;;;;;;14.93;9.52;;;24.00;97.30;;;;;;5051128;28;20044;-71
2022/08/24 08:24:25;;;;;;;11.60;10.43;;;24.10;97.10;;;;;;5069861;28;20489;-70
2022/08/24 08:26:53;;;;;;;8.82;7.80;;;25.00;96.80;;;;;;5067863;28;20100;-71
2022/08/24 08:29:19;;;;;;;12.40;8.18;;;24.30;96.70;;;;;;5066705;28;20147;-71
2022/08/24 08:31:45;;;;;;;11.43;8.13;;;24.30;96.20;;;;;;5056279;28;20477;-70
2022/08/24 08:34:11;;;;;;;11.23;8.15;;;24.30;96.10;;;;;;5066193;28;20036;-71
2022/08/24 08:36:39;;;;;;;13.68;9.80;;;25.30;96.10;;;;;;5066221;28;20054;-71
2022/08/24 08:39:07;;;;;;;9.70;8.35;;;24.60;95.60;;;;;;5061159;28;20028;-71
2022/08/24 08:41:51;;;;;;;7.78;6.97;;;24.60;95.50;;;;;;5064978;28;20024;-71
2022/08/24 08:44:58;;;;;;;8.30;7.47;;;24.70;95.60;;;;;;5056779;28;20031;-71
2022/08/24 08:47:45;;;;;;;9.65;6.88;;;24.70;94.70;;;;;;5062993;28;20048;-71
2022/08/24 08:50:17;;;;;;;7.13;6.43;;;24.80;94.50;;;;;;5064874;28;20104;-72
2022/08/24 08:53:20;;;;;;;7.43;6.78;;;24.90;95.00;;;;;;5058256;28;20031;-71
2022/08/24 08:55:58;;;;;;;5.63;5.10;;;24.90;94.20;;;;;;5050434;28;20123;-71
2022/08/24 08:58:46;;;;;;;7.10;5.30;;;25.20;94.00;;;;;;5050451;28;20115;-71
2022/08/24 09:01:26;;;;;;;6.20;4.50;;;25.40;93.80;;;;;;5051335;28;20041;-71
2022/08/24 09:04:30;;;;;;;9.77;6.00;;;25.10;93.20;;;;;;5044012;28;20124;-71
2022/08/24 09:07:05;;;;;;;6.97;5.15;;;25.30;93.20;;;;;;5059145;28;20067;-71
2022/08/24 09:10:01;;;;;;;7.43;6.68;;;26.00;93.40;;;;;;5061740;28;20118;-71
2022/08/24 09:12:53;;;;;;;5.50;4.70;;;25.40;92.60;;;;;;5056310;28;20041;-71
2022/08/24 09:15:45;;;;;;;6.18;4.38;;;25.60;92.30;;;;;;5063336;28;20362;-71
2022/08/24 09:18:46;;;;;;;7.15;4.18;;;26.90;93.40;;;;;;5058603;28;20048;-71
2022/08/24 09:21:59;;;;;;;5.53;3.17;;;25.70;92.10;;;;;;5042788;28;20465;-71
2022/08/24 09:24:48;;;;;;;3.72;3.13;;;25.70;91.90;;;;;;5062732;28;20436;-71
2022/08/24 09:27:31;;;;;;;6.05;3.83;;;25.60;92.50;;;;;;5057907;28;20065;-72
2022/08/24 09:30:02;;;;;;;;;;;25.80;91.20;;;;;;5051906;28;20429;-71
2022/08/24 09:32:36;;;;;;;2.67;2.38;;;26.10;91.90;;;;;;5049603;28;19908;-71
2022/08/24 09:35:14;;;;;;;3.00;2.70;;;26.10;92.30;;;;;;5059438;28;20105;-72
2022/08/24 09:37:42;;;;;;;3.20;2.38;;;26.00;91.90;;;;;;5065954;28;20384;-72
2022/08/24 09:40:33;;;;;;;9.70;2.92;;;26.10;90.60;;;;;;5067285;28;20056;-72
2022/08/24 09:43:20;;;;;;;3.20;2.42;;;26.20;90.60;;;;;;5049394;28;20719;-72
2022/08/24 09:46:04;;;;;;;3.55;2.47;;;26.30;90.50;;;;;;5049821;28;20021;-70
2022/08/24 09:48:48;;;;;;;3.08;2.40;;;26.40;90.60;;;;;;5052502;28;20025;-72
2022/08/24 09:51:14;;;;;;;2.45;1.70;;;26.60;91.10;;;;;;5062031;28;20021;-72
2022/08/24 09:54:04;;;;;;;2.95;1.88;;;26.50;90.40;;;;;;5052114;28;20024;-72
2022/08/24 09:57:10;;;;;;;2.65;1.63;;;26.60;89.90;;;;;;5041793;28;20029;-72
2022/08/24 09:59:44;;;;;;;4.55;2.47;;;26.70;89.70;;;;;;5046593;28;20029;-71
2022/08/24 10:02:18;;;;;;;2.78;1.85;;;26.50;90.00;;;;;;5050638;28;20048;-71
2022/08/24 10:05:02;;;;;;;4.95;2.53;;;26.70;88.80;;;;;;5051651;28;20024;-71
2022/08/24 10:07:45;;;;;;;3.35;2.45;;;26.70;90.10;;;;;;5052115;28;20025;-70
2022/08/24 10:10:25;;;;;;;;;;;26.80;88.20;;;;;;5050275;28;20071;-71
2022/08/24 10:13:31;;;;;;;2.38;1.80;;;26.80;88.90;;;;;;5061960;28;19982;-71
2022/08/24 10:16:01;;;;;;;2.33;2.13;;;26.80;88.20;;;;;;5042668;28;20036;-71
2022/08/24 10:18:59;;;;;;;2.58;2.20;;;26.90;89.10;;;;;;5049047;28;20738;-70
2022/08/24 10:21:46;;;;;;;3.17;1.65;;;27.00;87.20;;;;;;5054347;28;20058;-70
2022/08/24 10:24:37;;;;;;;3.42;1.88;;;27.10;86.90;;;;;;5059037;28;20120;-71
2022/08/24 10:27:21;;;;;;;4.90;1.85;;;27.10;88.00;;;;;;5049910;28;20070;-72
2022/08/24 10:30:24;;;;;;;1.70;1.52;;;27.30;85.20;;;;;;5049947;28;20032;-71
2022/08/24 10:33:04;;;;;;;1.48;1.20;;;27.30;85.30;;;;;;5050640;28;20025;-72
2022/08/24 10:35:39;;;;;;;3.40;1.50;;;27.30;84.10;;;;;;5049822;28;20043;-71
2022/08/24 10:41:29;;;;;;;1.63;1.45;;;27.40;86.20;;;;;;5045388;28;20075;-71
2022/08/24 10:44:41;;;;;;;2.50;1.60;;;27.40;85.40;;;;;;5048613;28;20033;-72
2022/08/24 10:47:35;;;;;;;3.20;2.05;;;27.50;83.80;;;;;;5063232;28;20020;-71
2022/08/24 10:50:09;;;;;;;3.70;1.40;;;27.50;85.00;;;;;;5049104;28;20032;-72
2022/08/24 10:52:47;;;;;;;3.28;1.60;;;27.60;83.10;;;;;;5050018;28;20016;-72
2022/08/24 10:55:21;;;;;;;3.03;2.03;;;27.60;84.30;;;;;;5050061;28;20104;-72
2022/08/24 10:58:19;;;;;;;1.88;1.63;;;27.70;82.50;;;;;;5048431;28;20112;-72
2022/08/24 11:00:45;;;;;;;1.60;1.50;;;27.70;82.50;;;;;;5049867;28;20045;-72
2022/08/24 11:03:12;;;;;;;2.10;1.52;;;27.70;83.10;;;;;;5049931;28;20434;-72
2022/08/24 11:05:48;;;;;;;5.57;1.90;;;27.80;82.60;;;;;;5065347;28;20025;-71
2022/08/24 11:08:29;;;;;;;1.88;1.65;;;27.60;82.90;;;;;;5038174;28;20057;-72
2022/08/24 11:11:27;;;;;;;5.03;1.50;;;27.80;81.40;;;;;;5049452;28;20051;-72
2022/08/24 11:13:59;;;;;;;2.03;1.38;;;27.90;81.30;;;;;;5052474;28;20687;-72
2022/08/24 11:16:40;;;;;;;3.23;1.50;;;27.90;82.30;;;;;;5068939;28;20028;-72
2022/08/24 11:19:27;;;;;;;2.60;1.40;;;28.00;80.30;;;;;;5069838;28;20021;-72
2022/08/24 11:22:04;;;;;;;2.45;1.33;;;28.10;79.70;;;;;;5069543;28;20021;-72
2022/08/24 11:24:45;;;;;;;4.68;1.30;;;28.20;81.30;;;;;;5069742;28;20055;-72
2022/08/24 11:27:16;;;;;;;3.85;2.17;;;28.40;81.60;;;;;;5068671;28;20027;-72
2022/08/24 11:29:51;;;;;;;1.75;1.20;;;28.20;80.90;;;;;;5069767;28;20029;-72
2022/08/24 11:32:37;;;;;;;2.00;1.50;;;28.40;80.70;;;;;;5069320;28;20029;-72
2022/08/24 11:35:24;;;;;;;2.15;1.77;;;28.50;78.80;;;;;;5054120;28;20027;-72
2022/08/24 11:37:53;;;;;;;2.00;1.13;;;28.60;78.20;;;;;;5063801;28;20432;-73
2022/08/24 11:40:27;;;;;;;2.05;1.38;;;28.50;79.00;;;;;;5058405;28;20039;-72
2022/08/24 11:43:19;;;;;;;3.65;1.48;;;28.80;78.80;;;;;;5069269;28;20055;-71
2022/08/24 11:46:26;;;;;;;3.97;2.15;;;28.70;77.20;;;;;;5065787;28;20046;-71
2022/08/24 11:49:06;;;;;;;1.60;1.42;;;28.60;76.60;;;;;;5024193;28;20623;-72
2022/08/24 11:51:56;;;;;;;3.45;1.85;;;28.60;78.10;;;;;;4998639;28;20502;-72
2022/08/24 11:54:35;;;;;;;2.83;1.17;;;28.50;76.10;;;;;;5026306;28;20152;-72
2022/08/24 11:57:15;;;;;;;1.55;1.25;;;28.40;76.40;;;;;;5027426;28;20560;-72
2022/08/24 12:00:11;;;;;;;8.35;6.57;;;28.40;76.40;;;;;;5026836;28;20022;-72
2022/08/24 12:03:07;;;;;;;3.47;1.55;;;28.50;77.20;;;;;;5026893;28;20057;-72
2022/08/24 12:05:55;;;;;;;3.70;2.00;;;28.40;77.60;;;;;;5032737;28;20030;-72
2022/08/24 12:08:42;;;;;;;6.22;1.58;;;28.40;78.80;;;;;;5026573;28;20430;-72
2022/08/24 12:11:30;;;;;;;6.22;4.45;;;28.60;76.90;;;;;;5026811;28;20034;-72
2022/08/24 12:14:13;;;;;;;4.45;2.30;;;28.60;76.70;;;;;;5036001;28;20017;-72
2022/08/24 12:16:54;;;;;;;3.50;1.88;;;28.60;76.70;;;;;;5033737;28;20056;-73
2022/08/24 12:19:26;;;;;;;4.60;2.63;;;28.80;76.20;;;;;;5036594;28;20029;-72
2022/08/24 12:21:56;;;;;;;4.30;2.25;;;29.10;77.60;;;;;;5048120;28;20025;-73
2022/08/24 12:24:30;;;;;;;5.70;2.30;;;29.10;77.00;;;;;;5068925;28;20025;-72
2022/08/24 12:27:03;;;;;;;4.00;3.53;;;29.20;77.30;;;;;;5069365;28;20056;-72
2022/08/24 12:29:47;;;;;;;3.80;2.92;;;29.20;76.90;;;;;;5067723;28;20370;-72
2022/08/24 12:32:27;;;;;;;4.18;1.75;;;29.30;75.10;;;;;;5060969;28;20036;-72
2022/08/24 12:35:20;;;;;;;5.32;3.80;;;29.40;75.10;;;;;;5069390;28;20025;-72
2022/08/24 12:38:07;;;;;;;3.42;2.03;;;29.40;75.30;;;;;;5047284;28;20160;-71
2022/08/24 12:40:48;;;;;;;2.88;1.98;;;29.60;75.10;;;;;;5068363;28;20028;-72
2022/08/24 12:43:51;;;;;;;2.22;1.75;;;29.30;74.20;;;;;;5053231;28;20040;-72
2022/08/24 12:46:19;;;;;;;;;;;29.50;74.40;;;;;;5047365;28;20016;-72
2022/08/24 12:48:59;;;;;;;1.33;1.23;;;29.50;76.70;;;;;;5070274;28;19955;-71
2022/08/24 12:51:43;;;;;;;1.67;1.55;;;29.50;76.50;;;;;;5064798;28;20494;-72
2022/08/24 12:54:45;;;;;;;2.80;1.45;;;29.70;74.10;;;;;;5069860;28;20020;-72
2022/08/24 12:57:22;;;;;;;2.00;1.80;;;29.80;75.80;;;;;;5071919;28;20046;-71
2022/08/24 12:59:52;;;;;;;2.67;1.70;;;30.00;75.00;;;;;;5072625;28;20094;-72
2022/08/24 13:02:18;;;;;;;3.75;1.95;;;30.30;74.50;;;;;;5059466;28;20079;-71
2022/08/24 13:04:49;;;;;;;3.22;1.70;;;30.30;73.20;;;;;;5072520;28;20444;-72
2022/08/24 13:07:18;;;;;;;2.95;1.80;;;30.40;72.60;;;;;;5071909;28;20103;-72
2022/08/24 13:09:45;;;;;;;2.58;1.85;;;30.40;72.10;;;;;;5042155;28;20017;-72
2022/08/24 13:12:29;;;;;;;2.65;1.77;;;30.70;71.10;;;;;;5059882;28;20029;-72